Waco's Hourly Summary for Sunday, July 8, 2018
Hour Temp
(f)
RH
(%)
Solar Rad.
(MJ/m2)
Rainfall
(in)
Wind
(mph)
7/8/2018 12:00 AM 76 76 0 0 0.46
7/8/2018 1:00 AM 75 79 0 0 2.7
7/8/2018 2:00 AM 74 85 0 0 0.9
7/8/2018 3:00 AM 74 86 0 0 0.4
7/8/2018 4:00 AM 73 85 0 0 0.1
7/8/2018 5:00 AM 72 87 0 0 0
7/8/2018 6:00 AM 72 89 0 0 0.16
7/8/2018 7:00 AM 72 89 0.03 0 0.01
7/8/2018 8:00 AM 77 69 0.33 0 0.04
7/8/2018 9:00 AM 80 69 0.95 0 2.35
7/8/2018 10:00 AM 82 62 1.53 0 2.88
7/8/2018 11:00 AM 85 57 2.18 0 3.99
7/8/2018 12:00 PM 87 51 2.51 0 5.27
7/8/2018 1:00 PM 90 44 2.69 0 3.76
7/8/2018 2:00 PM 90 45 0.92 0 1.85
7/8/2018 3:00 PM 86 46 0.6 0 7.25
7/8/2018 4:00 PM 81 63 0.39 0 3.22
7/8/2018 5:00 PM 83 58 0.29 0 1.04
7/8/2018 6:00 PM 82 59 0.3 0 2.46
7/8/2018 7:00 PM 80 69 0.28 0 4.1
7/8/2018 8:00 PM 80 71 0.23 0 2.98
7/8/2018 9:00 PM 79 71 0.04 0 2.19
7/8/2018 10:00 PM 78 77 0 0 2.3
7/8/2018 11:00 PM 77 80 0 0 1.86
Data Summary 79 69 13.27 0.00 2.18